Flight Track Log - Related Links

Times and Time Zones

All times are in EST time to prevent confusion due to time zone crossing. See the N165JH flight status page for this flight to view local times or setup timezone preferences in your user account.

Time Position Orientation Groundspeed Altitude Reporting Facility
EST Latitude Longitude Course Direction KTS MPH feet Rate Location/Type
Wed 03:40:43 PM 36.2033 -95.8831 103° East 100 115 1,200  Level Kansas City Center
Wed 03:42:10 PM 36.2336 -95.8386 50° Northeast 125 144 2,300 639 Climbing Kansas City Center
Wed 03:42:45 PM 36.2456 -95.8128 60° Northeast 159 183 2,500 387 Climbing Kansas City Center
Wed 03:43:12 PM 36.2422 -95.7900 100° East 143 165 2,700 655 Climbing Kansas City Center
Wed 03:43:40 PM 36.2367 -95.7594 103° East 169 194 3,100 677 Climbing Kansas City Center
Wed 03:44:14 PM 36.2322 -95.7339 102° East 160 184 3,400 822 Climbing Kansas City Center
Wed 03:44:53 PM 36.2228 -95.6967 107° East 159 183 4,100 871 Climbing Kansas City Center
Wed 03:45:16 PM 36.2186 -95.6833 111° Southeast 158 182 4,300 689 Climbing Kansas City Center
Wed 03:45:54 PM 36.2058 -95.6472 114° Southeast 156 180 4,800 581 Climbing Kansas City Center
Wed 03:46:00 PM 36.1813 -95.4992 103° East  Level Estimated
Wed 03:46:18 PM 36.2000 -95.6225 106° East 158 182 4,900  Level Kansas City Center
Wed 03:46:54 PM 36.1906 -95.5922 111° Southeast 164 189 5,000 97 Climbing Kansas City Center
Wed 03:47:20 PM 36.1842 -95.5678 108° East 163 188 5,000  Level Kansas City Center
Wed 03:47:55 PM 36.1750 -95.5347 109° East 183 211 5,000  Level Kansas City Center
Wed 03:48:22 PM 36.1683 -95.5078 107° East 174 200 5,000  Level Kansas City Center
Wed 03:48:50 PM 36.1594 -95.4772 110° East 188 216 5,000  Level Kansas City Center
Wed 03:49:24 PM 36.1506 -95.4483 111° Southeast 181 208 5,000  Level Kansas City Center
Wed 03:50:26 PM 36.1306 -95.3889 113° Southeast 185 213 5,000  Level Kansas City Center
Wed 03:51:28 PM 36.1150 -95.3278 107° East 186 214 5,000  Level Kansas City Center
Wed 03:52:30 PM 36.0950 -95.2547 109° East 187 215 5,000  Level Kansas City Center
Wed 03:53:32 PM 36.0783 -95.1936 109° East 187 215 5,000  Level Kansas City Center
Wed 03:54:34 PM 36.0606 -95.1322 110° East 189 217 5,000  Level Kansas City Center
Wed 03:55:37 PM 36.0431 -95.0717 110° East 188 216 5,000  Level Kansas City Center
Wed 03:56:39 PM 36.0264 -95.0114 109° East 187 215 5,000  Level Kansas City Center
Wed 03:57:41 PM 36.0194 -94.9503 98° East 184 212 5,000 97 Level Kansas City Center
Wed 03:58:43 PM 36.0164 -94.8764 93° East 182 209 5,200 242 Climbing Kansas City Center
Wed 03:59:45 PM 36.0136 -94.8164 93° East 178 205 5,500 242 Climbing Kansas City Center
Wed 04:00:47 PM 36.0106 -94.7542 93° East 179 206 5,700 194 Climbing Kansas City Center
Wed 04:01:49 PM 36.0086 -94.6928 92° East 179 206 5,900 194 Climbing Kansas City Center
Wed 04:02:51 PM 36.0058 -94.6283 93° East 183 211 6,100 185 Climbing Kansas City Center
Wed 04:03:59 PM 36.0028 -94.5494 93° East 183 211 6,300 141 Climbing Memphis Center
Wed 04:04:59 PM 35.9986 -94.4825 94° East 183 211 6,400 100 Climbing Memphis Center
Wed 04:05:59 PM 35.9967 -94.4158 92° East 183 211 6,500 50 Climbing Memphis Center
Wed 04:06:59 PM 35.9928 -94.3464 94° East 188 216 6,500 50 Level Memphis Center
Wed 04:07:59 PM 35.9886 -94.2819 95° East 188 216 6,600 50 Climbing Memphis Center
Wed 04:08:59 PM 35.9864 -94.2125 92° East 193 222 6,600 50 Level Memphis Center
Wed 04:09:59 PM 35.9864 -94.1433 90° East 198 228 6,700 50 Climbing Memphis Center
Wed 04:10:59 PM 35.9781 -94.0761 99° East 198 228 6,700 50 Level Memphis Center
Wed 04:11:59 PM 35.9783 -93.9994 90° East 209 241 6,800 53 Climbing Memphis Center
Wed 04:13:00 PM 35.9735 -93.9336 95° East  Level FlightAware Approximate
Wed 04:14:47 PM 35.9672 -93.8064 95° East 202 232 6,900  Level Memphis Center
Wed 04:15:47 PM 35.9647 -93.7372 93° East 202 232 6,900 50 Level Memphis Center
Wed 04:16:47 PM 35.9603 -93.6703 95° East 202 232 7,000 100 Climbing Memphis Center
Wed 04:17:47 PM 35.9578 -93.6061 93° East 202 232 7,100 50 Climbing Memphis Center
Wed 04:18:47 PM 35.9533 -93.5367 95° East 196 226 7,100  Level Memphis Center
Wed 04:19:47 PM 35.9489 -93.4725 95° East 196 226 7,100  Level Memphis Center
Wed 04:20:00 PM 35.9396 -93.4808 95° East  Level FlightAware Approximate
Wed 04:20:47 PM 35.9464 -93.4056 93° East 196 226 7,100  Level Memphis Center
Wed 04:21:47 PM 35.9417 -93.3389 95° East 196 226 7,100  Level Memphis Center
Wed 04:22:47 PM 35.9411 -93.2719 91° East 196 226 7,100  Level Memphis Center
Wed 04:23:47 PM 35.9364 -93.2053 95° East 196 226 7,100  Level Memphis Center
Wed 04:24:47 PM 35.9317 -93.1386 95° East 196 226 7,100  Level Memphis Center
Wed 04:25:47 PM 35.9269 -93.0692 95° East 196 226 7,100  Level Memphis Center
Wed 04:26:47 PM 35.9242 -93.0025 93° East 196 226 7,100  Level Memphis Center
Wed 04:27:47 PM 35.9214 -92.9433 93° East 196 226 7,100  Level Memphis Center
Wed 04:28:47 PM 35.9186 -92.8767 93° East 196 226 7,100  Level Memphis Center
Wed 04:29:47 PM 35.9136 -92.8072 95° East 201 231 7,100  Level Memphis Center
Wed 04:30:47 PM 35.9108 -92.7406 93° East 201 231 7,100 -50 Level Memphis Center
Wed 04:31:47 PM 35.9058 -92.6739 95° East 201 231 7,000 -50 Descending Memphis Center
Wed 04:32:47 PM 35.9028 -92.6044 93° East 201 231 7,000  Level Memphis Center
Wed 04:33:47 PM 35.8997 -92.5403 93° East 196 226 7,000  Level Memphis Center
Wed 04:34:47 PM 35.8947 -92.4711 95° East 196 226 7,000  Level Memphis Center
Wed 04:35:47 PM 35.8894 -92.4069 96° East 196 226 7,000  Level Memphis Center
Wed 04:36:47 PM 35.8844 -92.3400 95° East 196 226 7,000  Level Memphis Center
Wed 04:37:47 PM 35.8833 -92.2733 91° East 196 226 7,000  Level Memphis Center
Wed 04:38:47 PM 35.8783 -92.1964 95° East 196 226 7,000  Level Memphis Center
Wed 04:39:47 PM 35.8767 -92.1556 93° East 196 226 7,000  Level Memphis Center
Wed 04:40:47 PM 35.8675 -92.0706 98° East 183 211 7,000 50 Level Memphis Center
Wed 04:41:47 PM 35.8664 -92.0014 91° East 194 223 7,100  Climbing Memphis Center
Wed 04:42:47 PM 35.8589 -91.9322 98° East 200 230 7,000  Descending Memphis Center
Wed 04:43:47 PM 35.8575 -91.8681 92° East 200 230 7,100  Climbing Memphis Center
Wed 04:44:47 PM 35.8522 -91.7989 95° East 194 223 7,000  Descending Memphis Center
Wed 04:45:47 PM 35.8467 -91.7322 96° East 199 229 7,100 50 Climbing Memphis Center
Wed 04:46:47 PM 35.8431 -91.6681 94° East 199 229 7,100  Level Memphis Center
Wed 04:47:47 PM 35.8397 -91.6014 94° East 199 229 7,100  Level Memphis Center
Wed 04:48:47 PM 35.8361 -91.5375 94° East 199 229 7,100 -50 Level Memphis Center
Wed 04:49:47 PM 35.8306 -91.4708 96° East 199 229 7,000 -67 Descending Memphis Center
Wed 04:51:00 PM 35.8130 -91.3928 95° East  Level FlightAware Approximate
Wed 04:51:47 PM 35.8192 -91.3350 95° East 199 229 6,900  Level Memphis Center
Wed 04:52:47 PM 35.8114 -91.2683 98° East 199 229 7,000  Climbing Memphis Center
Wed 04:53:47 PM 35.8097 -91.2017 92° East 199 229 6,900  Descending Memphis Center
Wed 04:54:47 PM 35.8039 -91.1350 96° East 199 229 7,000 50 Climbing Memphis Center
Wed 04:55:47 PM 35.8022 -91.0711 92° East 199 229 7,000 -50 Level Memphis Center
Wed 04:56:47 PM 35.7942 -91.0069 99° East 199 229 6,900 -50 Descending Memphis Center
Wed 04:57:47 PM 35.7944 -90.9431 90° East 199 229 6,900  Level Memphis Center
Wed 04:58:47 PM 35.7822 -90.8714 102° East 199 229 6,900  Level Memphis Center
Wed 04:59:47 PM 35.7825 -90.8075 90° East 199 229 6,900  Level Memphis Center
Wed 05:00:47 PM 35.7764 -90.7408 96° East 199 229 6,900 50 Level Memphis Center
Wed 05:01:47 PM 35.7703 -90.6742 96° East 199 229 7,000  Climbing Memphis Center
Wed 05:02:47 PM 35.7642 -90.6078 96° East 199 229 6,900 -50 Descending Memphis Center
Wed 05:03:47 PM 35.7603 -90.5386 94° East 199 229 6,900  Level Memphis Center
Wed 05:04:47 PM 35.7542 -90.4747 97° East 199 229 6,900 50 Level Memphis Center
Wed 05:05:47 PM 35.7519 -90.4081 92° East 199 229 7,000  Climbing Memphis Center
Wed 05:06:47 PM 35.7458 -90.3417 96° East 199 229 6,900  Descending Memphis Center
Wed 05:07:47 PM 35.7394 -90.2753 97° East 199 229 7,000  Climbing Memphis Center
Wed 05:08:47 PM 35.7331 -90.2061 96° East 199 229 6,900 -50 Descending Memphis Center
Wed 05:09:47 PM 35.7289 -90.1369 94° East 199 229 6,900 50 Level Memphis Center
Wed 05:10:47 PM 35.7244 -90.0731 95° East 199 229 7,000 50 Climbing Memphis Center
Wed 05:11:47 PM 35.7181 -90.0042 96° East 199 229 7,000  Level Memphis Center
Wed 05:12:47 PM 35.7136 -89.9350 95° East 199 229 7,000  Level Memphis Center
Wed 05:13:47 PM 35.7072 -89.8636 96° East 199 229 7,000  Level Memphis Center
Wed 05:14:47 PM 35.7006 -89.7972 97° East 199 229 7,000  Level Memphis Center
Wed 05:15:47 PM 35.6961 -89.7283 95° East 199 229 7,000  Level Memphis Center
Wed 05:16:47 PM 35.6917 -89.6617 95° East 199 229 7,000  Level Memphis Center
Wed 05:17:47 PM 35.6869 -89.5928 95° East 199 229 7,000  Level Memphis Center
Wed 05:18:47 PM 35.6825 -89.5239 95° East 199 229 7,000  Level Memphis Center
Wed 05:19:47 PM 35.6756 -89.4575 97° East 204 235 7,000  Level Memphis Center
Wed 05:20:47 PM 35.6689 -89.3833 96° East 194 223 7,000  Level Memphis Center
Wed 05:21:47 PM 35.6619 -89.3144 97° East 200 230 7,000  Level Memphis Center
Wed 05:22:47 PM 35.6572 -89.2506 95° East 200 230 7,000  Level Memphis Center
Wed 05:23:47 PM 35.6547 -89.1842 93° East 200 230 7,000  Level Memphis Center
Wed 05:24:47 PM 35.6458 -89.1231 100° East 200 230 7,000  Level Memphis Center
Wed 05:25:47 PM 35.6408 -89.0619 96° East 200 230 7,000  Level Memphis Center
Wed 05:26:47 PM 35.6339 -88.9803 96° East 200 230 7,000  Level Memphis Center
Wed 05:27:47 PM 35.6289 -88.9139 95° East 200 230 7,000  Level Memphis Center
Wed 05:28:47 PM 35.6219 -88.8553 98° East 200 230 7,000  Level Memphis Center
Wed 05:29:47 PM 35.6189 -88.7786 93° East 211 243 7,000  Level Memphis Center
Wed 05:30:47 PM 35.6097 -88.7175 100° East 200 230 7,000  Level Memphis Center
Wed 05:31:47 PM 35.6025 -88.6539 98° East 200 230 7,000  Level Memphis Center
Wed 05:32:47 PM 35.5975 -88.5850 95° East 200 230 7,000  Level Memphis Center
Wed 05:33:47 PM 35.5903 -88.5214 98° East 200 230 7,000  Level Memphis Center
Wed 05:34:47 PM 35.5850 -88.4500 95° East 200 230 7,000  Level Memphis Center
Wed 05:35:47 PM 35.5797 -88.3864 96° East 200 230 7,000  Level Memphis Center
Wed 05:36:47 PM 35.5725 -88.3228 98° East 200 230 7,000  Level Memphis Center
Wed 05:37:47 PM 35.5653 -88.2592 98° East 195 224 7,000  Level Memphis Center
Wed 05:38:47 PM 35.5600 -88.1956 96° East 195 224 7,000  Level Memphis Center
Wed 05:39:47 PM 35.5567 -88.1292 94° East 195 224 7,000  Level Memphis Center
Wed 05:40:47 PM 35.5472 -88.0631 100° East 194 223 7,000  Level Memphis Center
Wed 05:41:47 PM 35.5397 -87.9944 98° East 194 223 7,000  Level Memphis Center
Wed 05:42:47 PM 35.5342 -87.9283 96° East 194 223 7,000  Level Memphis Center
Wed 05:43:47 PM 35.5289 -87.8647 96° East 194 223 7,000  Level Memphis Center
Wed 05:44:47 PM 35.5192 -87.7986 100° East 194 223 7,000  Level Memphis Center
Wed 05:45:47 PM 35.5156 -87.7350 94° East 194 223 7,000  Level Memphis Center
Wed 05:46:47 PM 35.5058 -87.6664 100° East 202 232 7,000  Level Memphis Center
Wed 05:47:47 PM 35.5022 -87.6003 94° East 202 232 7,000  Level Memphis Center
Wed 05:48:47 PM 35.4944 -87.5342 98° East 202 232 7,000  Level Memphis Center
Wed 05:49:47 PM 35.4867 -87.4681 98° East 197 227 7,000  Level Memphis Center
Wed 05:50:47 PM 35.4811 -87.4044 96° East 197 227 7,000  Level Memphis Center
Wed 05:51:47 PM 35.4733 -87.3461 99° East 197 227 7,000  Level Memphis Center
Wed 05:52:47 PM 35.4678 -87.2828 96° East 197 227 7,000  Level Memphis Center
Wed 05:53:47 PM 35.4597 -87.2167 98° East 197 227 7,000  Level Memphis Center
Wed 05:54:47 PM 35.4539 -87.1533 96° East 197 227 7,000  Level Memphis Center
Wed 05:55:47 PM 35.4481 -87.0847 96° East 197 227 7,000  Level Memphis Center
Wed 05:56:47 PM 35.4400 -87.0211 99° East 197 227 7,000  Level Memphis Center
Wed 05:57:47 PM 35.4322 -86.9603 99° East 197 227 7,000  Level Memphis Center
Wed 05:58:47 PM 35.4261 -86.8919 96° East 197 227 7,000  Level Memphis Center
Wed 05:59:47 PM 35.4178 -86.8208 98° East 197 227 7,000  Level Memphis Center
Wed 06:00:47 PM 35.4117 -86.7497 96° East 204 235 7,000  Level Memphis Center
Wed 06:01:47 PM 35.4033 -86.6814 98° East 196 226 7,000  Level Memphis Center
Wed 06:02:47 PM 35.3953 -86.6231 100° East 196 226 7,000  Level Memphis Center
Wed 06:03:47 PM 35.3892 -86.5522 96° East 203 234 7,000  Level Memphis Center
Wed 06:04:47 PM 35.3806 -86.4836 99° East 203 234 7,000  Level Memphis Center
Wed 06:05:47 PM 35.3744 -86.4153 96° East 197 227 7,000  Level Memphis Center
Wed 06:06:47 PM 35.3661 -86.3519 99° East 197 227 7,000  Level Memphis Center
Wed 06:07:47 PM 35.3597 -86.2836 97° East 205 236 7,000  Level Memphis Center
Wed 06:08:47 PM 35.3514 -86.2178 99° East 199 229 7,000 50 Level Memphis Center
Wed 06:09:47 PM 35.3428 -86.1494 99° East 205 236 7,100 50 Climbing Memphis Center
Wed 06:10:47 PM 35.3364 -86.0836 97° East 195 224 7,100  Level Memphis Center
Wed 06:11:47 PM 35.3278 -86.0181 99° East 195 224 7,100 Level Memphis Center
Wed 06:13:00 PM 35.3180 -85.9397 99° East  Level FlightAware Approximate
Wed 06:20:00 PM 35.2613 -85.4893 99° East  Level FlightAware Approximate
Wed 06:21:00 PM 35.2533 -85.4249 99° East  Level FlightAware Approximate
Wed 06:22:00 PM 35.2454 -85.3606 99° East  Level FlightAware Approximate
Wed 06:23:00 PM 35.2374 -85.2963 99° East  Level FlightAware Approximate
Wed 06:24:00 PM 35.2294 -85.2320 99° East  Level FlightAware Approximate
Wed 06:25:00 PM 35.2213 -85.1677 99° East  Level FlightAware Approximate
Wed 06:26:00 PM 35.2132 -85.1034 99° East  Level FlightAware Approximate
Wed 06:27:00 PM 35.2051 -85.0391 99° East  Level FlightAware Approximate
Wed 06:27:57 PM 35.2036 -84.9869 99° East 219 252 7,200  Level Atlanta Center
Wed 06:28:00 PM 35.1969 -84.9749 99° East  Level FlightAware Approximate
Wed 06:28:57 PM 35.1997 -84.9208 94° East 204 235 7,200  Level Atlanta Center
Wed 06:29:00 PM 35.1887 -84.9106 99° East  Level FlightAware Approximate
Wed 06:29:57 PM 35.1917 -84.8775 103° East 245 282 7,200  Level Atlanta Center
Wed 06:30:00 PM 35.1805 -84.8464 99° East  Level FlightAware Approximate
Wed 06:30:57 PM 35.1839 -84.8011 97° East 198 228 7,200  Level Atlanta Center
Wed 06:31:00 PM 35.1722 -84.7822 99° East  Level FlightAware Approximate
Wed 06:31:57 PM 35.1739 -84.7375 101° East 184 212 7,200  Level Atlanta Center
Wed 06:32:00 PM 35.1640 -84.7180 99° East  Level FlightAware Approximate
Wed 06:32:57 PM 35.1681 -84.6739 96° East 184 212 7,200  Level Atlanta Center
Wed 06:33:57 PM 35.1578 -84.6128 102° East 184 212 7,200  Level Atlanta Center
Wed 06:34:57 PM 35.1517 -84.5519 97° East 184 212 7,200  Level Atlanta Center
Wed 06:35:57 PM 35.1436 -84.4908 99° East 184 212 7,200 -50 Level Atlanta Center
Wed 06:36:57 PM 35.1356 -84.4300 99° East 184 212 7,100  Descending Atlanta Center
Wed 06:37:57 PM 35.1275 -84.3689 99° East 184 212 7,200 250 Climbing Atlanta Center
Wed 06:38:57 PM 35.1214 -84.3131 98° East 178 205 7,600 400 Climbing Atlanta Center
Wed 06:39:57 PM 35.1131 -84.2547 100° East 173 199 8,000 400 Climbing Atlanta Center
Wed 06:40:57 PM 35.1047 -84.1986 100° East 168 193 8,400 400 Climbing Atlanta Center
Wed 06:41:57 PM 35.0986 -84.1403 97° East 168 193 8,800 350 Climbing Atlanta Center
Wed 06:42:57 PM 35.0903 -84.0819 100° East 168 193 9,100 150 Climbing Atlanta Center
Wed 06:43:57 PM 35.0839 -84.0183 97° East 168 193 9,100  Level Atlanta Center
Wed 06:44:57 PM 35.0756 -83.9653 101° East 173 199 9,100  Level Atlanta Center
Wed 06:45:57 PM 35.0672 -83.8992 99° East 187 215 9,100  Level Atlanta Center
Wed 06:46:57 PM 35.0567 -83.8358 101° East 187 215 9,100  Level Atlanta Center
Wed 06:47:57 PM 35.0503 -83.7725 97° East 187 215 9,100  Level Atlanta Center
Wed 06:48:57 PM 35.0397 -83.7089 101° East 187 215 9,100  Level Atlanta Center
Wed 06:49:57 PM 35.0311 -83.6431 99° East 187 215 9,100  Level Atlanta Center
Wed 06:50:57 PM 35.0225 -83.5797 99° East 187 215 9,100 50 Level Atlanta Center
Wed 06:51:57 PM 35.0097 -83.5086 102° East 187 215 9,200  Climbing Atlanta Center
Wed 06:52:57 PM 35.0011 -83.4403 99° East 195 224 9,100 -50 Descending Atlanta Center
Wed 06:53:57 PM 34.9925 -83.3794 100° East 190 219 9,100  Level Atlanta Center
Wed 06:54:57 PM 34.9839 -83.3161 99° East 190 219 9,100  Level Atlanta Center
Wed 06:55:57 PM 34.9731 -83.2556 102° East 184 212 9,100 50 Level Atlanta Center
Wed 06:56:57 PM 34.9664 -83.1897 97° East 184 212 9,200 50 Climbing Atlanta Center
Wed 06:57:57 PM 34.9597 -83.1289 98° East 184 212 9,200  Level Atlanta Center
Wed 06:58:57 PM 34.9486 -83.0708 103° East 184 212 9,200  Level Atlanta Center
Wed 06:59:57 PM 34.9419 -83.0025 97° East 184 212 9,200  Level Atlanta Center
Wed 07:00:57 PM 34.9331 -82.9442 101° East 178 205 9,200 -50 Level Atlanta Center
Wed 07:01:57 PM 34.9219 -82.8836 103° East 178 205 9,100 -50 Descending Atlanta Center
Wed 07:02:57 PM 34.9153 -82.8203 97° East 185 213 9,100  Level Atlanta Center
Wed 07:03:57 PM 34.9061 -82.7572 100° East 179 206 9,100 -150 Level Atlanta Center
Wed 07:04:57 PM 34.8972 -82.6914 99° East 185 213 8,800 -550 Descending Atlanta Center
Wed 07:05:57 PM 34.8861 -82.6308 103° East 185 213 8,000 -950 Descending Atlanta Center
Wed 07:06:57 PM 34.8792 -82.5703 98° East 185 213 6,900 -1,100 Descending Atlanta Center
Wed 07:08:00 PM 34.8698 -82.5046 100° East  Level FlightAware Approximate
Wed 07:15:00 PM 34.8333 -82.3500 141° Southeast  Level FlightAware Approximate
Wed 07:16:00 PM 34.8479 -82.3500 141° Southeast  Level Estimated
Wed 07:17:00 PM 34.8479 -82.3500 141° Southeast  Level Estimated
Wed 07:18:00 PM 34.8479 -82.3500 141° Southeast  Level Estimated
Wed 07:19:00 PM 34.8479 -82.3500 141° Southeast  Level Estimated

Login

Don't have an account? Register now (free) for customized features, flight alerts, and more!